Latest Coastal Weather Observations for Wilsons Promontory

IDV60701

Issued at 9:45 pm EST Thursday 18 September 2014 (issued every 10 minutes, with the page automatically refreshed every 10 minutes)

About coastal observations | Map of coastal stations | Coastal observations for VIC | Marine services | Other Formats
Station Details ID: 085096 Name: WILSONS PROMONTORY LIGHTHOUSE Lat: -39.13 Lon: 146.42 Height: 95.0 m
Data from the previous 72 hours. | See also: Recent months at Wilsons Promontory
Date/Time
EST
Temp

°C
Wind Pressure Rain
since 9am
mm
Weather Cloud Vis
km
Sea
Height
m
Swell
Dir
 
Speed
knots
Gust
knots
hPa Trend Height
m
Period
s
Dir
18/09:32pm 11.3 W 22 34 1020.9 - 0.0 - - - - - - -
18/09:30pm 11.2 W 22 31 1021.1 - 0.0 - - - - - - -
18/09:26pm 11.0 W 24 34 1021.3 - 0.0 - - - - - - -
18/09:00pm 11.3 WSW 31 38 1021.0 - 0.0 - - - - - - -
18/08:30pm 11.1 SW 34 39 1020.4 - 0.0 - - - - - - -
18/08:00pm 11.1 WSW 32 41 1020.1 - 0.0 - - - - - - -
18/07:30pm 11.1 WSW 34 42 1020.0 - 0.0 - - - - - - -
18/07:29pm 11.0 WSW 36 42 1019.7 - 0.0 - - - - - - -
18/07:11pm 11.1 W 22 34 1020.2 - 0.0 - - - - - - -
18/07:00pm 11.1 WSW 24 33 1020.4 - 0.0 - - - - - - -
18/06:50pm 11.0 W 23 33 1020.3 - 0.0 - - - - - - -
18/06:30pm 10.9 W 24 32 1020.3 - 0.0 - - - - - - -
18/06:09pm 10.9 WSW 25 41 1020.0 - 0.0 - - - - - - -
18/06:00pm 10.9 WSW 37 41 1019.5 - 0.0 - - - - - - -
18/05:58pm 10.9 WSW 38 42 1019.4 - 0.0 - - - - - - -
18/05:56pm 11.0 W 27 42 1019.6 - 0.0 - - - - - - -
18/05:46pm 11.0 WSW 39 43 1019.3 - 0.0 - - - - - - -
18/05:30pm 11.2 W 25 43 1019.6 - 0.0 - - - - - - -
18/05:27pm 11.2 WSW 26 43 1019.3 - 0.0 - - - - - - -
18/05:25pm 11.3 W 23 43 1019.5 - 0.0 - - - - - - -
18/05:11pm 11.3 WSW 33 43 1019.1 - 0.0 - - - - - - -
18/05:00pm 11.4 WSW 38 43 1018.9 - 0.0 - - - - - - -
18/04:59pm 11.3 WSW 39 43 1018.7 - 0.0 - - - - - - -
18/04:47pm 11.3 WSW 27 38 1018.9 - 0.0 - - - - - - -
18/04:30pm 11.1 WSW 27 36 1019.0 - 0.0 - - - - - - -
18/04:24pm 11.2 WSW 27 41 1018.8 - 0.0 - - - - - - -
18/04:18pm 11.1 WSW 38 41 1018.6 - 0.0 - - - - - - -
18/04:00pm 11.0 W 26 37 1018.8 - 0.0 - - - - - - -
18/03:43pm 11.5 W 28 43 1018.4 - 0.0 - - - - - - -
18/03:42pm 11.5 W 27 43 1018.6 - 0.0 - - - - - - -
18/03:37pm 11.1 WSW 38 43 1018.2 - 0.0 - - - - - - -
18/03:30pm 11.4 W 26 38 1018.5 - 0.0 - - - - - - -
18/03:24pm 11.5 WSW 29 39 1018.6 - 0.0 - - - - - - -
18/03:00pm 11.4 WSW 32 40 1018.4 - 0.0 - - - - - - -
18/02:30pm 11.3 WSW 28 40 1018.4 - 0.0 - - - - - - -
18/02:25pm 11.3 WSW 25 37 1018.4 - 0.0 - - - - - - -
18/02:00pm 11.9 W 21 28 1018.6 - 0.0 - - - - - - -
18/01:50pm 11.4 W 20 36 1018.8 - 0.0 - - - - - - -
18/01:30pm 11.2 WSW 32 39 1018.2 - 0.0 - - - - - - -
18/01:15pm 11.7 WSW 26 36 1018.4 - 0.0 - - - - - - -
18/01:00pm 11.6 WSW 26 34 1018.6 - 0.0 - - - - - - -
18/12:54pm 11.6 WSW 24 35 1018.8 - 0.0 - - - - - - -
18/12:30pm 11.5 SW 35 40 1018.4 - 0.0 - - - - - - -
18/12:00pm 11.4 WSW 32 38 1018.7 - 0.0 - - - - - - -
18/11:30am 10.8 SW 33 37 1018.7 - 0.0 - - - - - - -
18/11:00am 10.9 SW 33 38 1018.5 - 0.0 - - - - - - -
18/10:30am 11.2 SW 31 36 1018.8 - 0.0 - - - - - - -
18/10:00am 11.0 SW 33 38 1018.2 - 0.0 - - - - - - -
18/09:30am 11.0 WSW 30 36 1018.5 - 0.0 - - - - - - -
18/09:00am 10.8 WSW 30 38 1018.2 - 4.0 - - - - - - -
18/08:30am 10.8 WSW 34 40 1017.6 - 4.0 - - - - - - -
18/08:00am 10.8 SW 32 37 1017.6 - 4.0 - - - - - - -
18/07:30am 10.6 SW 34 39 1016.9 - 4.0 - - - - - - -
18/07:00am 10.4 SW 37 43 1016.8 - 4.0 - - - - - - -
18/06:39am 10.2 SW 36 41 1016.1 - 4.0 - - - - - - -
18/06:30am 10.1 SW 22 39 1015.9 - 4.0 - - - - - - -
18/06:29am 10.2 SW 19 39 1016.0 - 4.0 - - - - - - -
18/06:23am 10.1 SW 32 42 1015.9 - 4.0 - - - - - - -
18/06:00am 10.1 SW 37 42 1015.8 - 4.0 - - - - - - -
18/05:30am 10.1 SW 36 42 1015.5 - 4.0 - - - - - - -
18/05:00am 10.2 SW 36 42 1015.0 - 4.0 - - - - - - -
18/04:30am 10.2 SW 30 45 1014.3 - 4.0 - - - - - - -
18/04:14am 9.9 SW 33 43 1014.1 - 4.0 - - - - - - -
18/04:00am 9.8 SW 37 43 1014.1 - 4.0 - - - - - - -
18/03:30am 9.9 SW 41 45 1013.7 - 4.0 - - - - - - -
18/03:00am 10.0 SW 40 45 1013.7 - 4.0 - - - - - - -
18/02:30am 9.9 SW 43 51 1012.7 - 4.0 - - - - - - -
18/02:00am 9.7 WSW 38 49 1013.4 - 4.0 - - - - - - -
18/01:30am 10.1 WSW 36 46 1013.3 - 4.0 - - - - - - -
18/01:00am 9.7 WSW 37 49 1013.0 - 4.0 - - - - - - -
18/12:57am 9.6 WSW 37 50 1012.9 - 4.0 - - - - - - -
18/12:56am 9.7 WSW 34 50 1013.2 - 4.0 - - - - - - -
18/12:50am 9.6 WSW 47 50 1012.5 - 4.0 - - - - - - -
18/12:45am 9.4 WSW 34 44 1013.2 - 4.0 - - - - - - -
18/12:43am 9.5 WSW 32 40 1013.5 - 4.0 - - - - - - -
18/12:40am 9.5 W 22 37 1013.9 - 4.0 - - - - - - -
18/12:39am 9.5 W 21 36 1014.0 - 4.0 - - - - - - -
18/12:30am 8.9 W 32 44 1013.7 - 4.0 - - - - - - -
18/12:22am 9.2 W 35 47 1013.0 - 4.0 - - - - - - -
18/12:21am 9.2 W 37 47 1012.8 - 4.0 - - - - - - -
18/12:13am 8.4 SW 37 47 1012.9 - 4.0 - - - - - - -
18/12:11am 8.6 SW 38 44 1013.1 - 4.0 - - - - - - -
18/12:09am 9.2 WSW 28 38 1013.6 - 4.0 - - - - - - -
18/12:00am 8.6 WSW 32 45 1013.5 - 4.0 - - - - - - -
 
Date/Time
EST
Temp

°C
Wind Pressure Rain
since 9am
mm
Weather Cloud Vis
km
Sea
Height
m
Swell
Dir
 
Speed
knots
Gust
knots
hPa Trend Height
m
Period
s
Dir
17/11:51pm 7.8 SW 45 55 1013.0 - 4.0 - - - - - - -
17/11:47pm 8.4 SW 49 55 1012.0 - 3.8 - - - - - - -
17/11:46pm 8.5 WSW 29 55 1012.5 - 3.8 - - - - - - -
17/11:30pm 8.1 W 29 41 1013.2 - 3.8 - - - - - - -
17/11:09pm 7.4 W 35 71 1013.1 - 3.4 - - - - - - -
17/11:06pm 6.8 SW 57 71 1011.9 - 3.4 - - - - - - -
17/11:05pm 7.5 WSW 37 71 1011.0 - 3.2 - - - - - - -
17/11:00pm 9.4 WSW 35 49 1012.7 - 3.2 - - - - - - -
17/10:30pm 8.0 W 31 56 1013.3 - 3.2 - - - - - - -
17/10:27pm 8.0 W 29 58 1013.2 - 3.2 - - - - - - -
17/10:25pm 8.1 W 29 58 1013.3 - 3.2 - - - - - - -
17/10:18pm 9.0 WSW 42 58 1011.9 - 2.8 - - - - - - -
17/10:12pm 9.6 WSW 43 48 1012.3 - 2.8 - - - - - - -
17/10:00pm 9.2 WSW 30 43 1012.7 - 2.8 - - - - - - -
17/09:37pm 8.3 W 27 51 1013.7 - 2.8 - - - - - - -
17/09:33pm 8.3 W 30 52 1012.9 - 2.8 - - - - - - -
17/09:30pm 8.1 WSW 42 52 1012.6 - 2.8 - - - - - - -
17/09:27pm 8.6 WSW 44 52 1012.1 - 2.8 - - - - - - -
17/09:08pm 7.8 W 27 58 1013.3 - 2.8 - - - - - - -
17/09:07pm 7.5 W 30 58 1013.2 - 2.8 - - - - - - -
17/09:00pm 7.5 SW 48 61 1012.5 - 2.6 - - - - - - -
17/08:57pm 7.1 SW 51 61 1011.7 - 2.6 - - - - - - -
17/08:55pm 6.8 WSW 52 61 1011.5 - 2.4 - - - - - - -
17/08:54pm 8.5 WSW 33 61 1011.8 - 2.4 - - - - - - -
17/08:30pm 8.3 W 28 41 1012.6 - 2.4 - - - - - - -
17/08:27pm 8.4 W 26 51 1012.9 - 2.2 - - - - - - -
17/08:20pm 7.9 W 39 51 1012.7 - 2.2 - - - - - - -
17/08:19pm 7.9 W 42 51 1012.2 - 2.2 - - - - - - -
17/08:17pm 8.6 W 28 49 1012.7 - 2.0 - - - - - - -
17/08:15pm 8.6 W 28 39 1013.0 - 1.8 - - - - - - -
17/08:06pm 9.7 WSW 33 51 1012.4 - 1.6 - - - - - - -
17/08:03pm 9.9 WSW 36 51 1011.8 - 1.6 - - - - - - -
17/08:00pm 9.8 WSW 46 51 1011.2 - 1.6 - - - - - - -
17/07:40pm 9.9 WSW 41 51 1011.8 - 1.6 - - - - - - -
17/07:38pm 9.8 WSW 46 51 1011.3 - 1.6 - - - - - - -
17/07:33pm 9.8 WSW 33 54 1011.8 - 1.6 - - - - - - -
17/07:30pm 9.8 WSW 33 54 1011.7 - 1.6 - - - - - - -
17/07:28pm 9.8 WSW 44 54 1011.4 - 1.6 - - - - - - -
17/07:23pm 9.8 WSW 45 51 1011.2 - 1.6 - - - - - - -
17/07:13pm 9.6 W 34 59 1011.4 - 1.6 - - - - - - -
17/07:06pm 9.9 WSW 49 59 1010.2 - 1.6 - - - - - - -
17/07:03pm 10.2 WSW 29 52 1010.7 - 1.6 - - - - - - -
17/07:00pm 10.1 WSW 29 41 1011.9 - 1.6 - - - - - - -
17/06:52pm 9.8 W 30 44 1011.6 - 1.6 - - - - - - -
17/06:50pm 9.9 W 28 44 1011.6 - 1.6 - - - - - - -
17/06:30pm 9.7 WSW 39 55 1011.1 - 1.6 - - - - - - -
17/06:10pm 9.8 WSW 44 54 1010.4 - 1.6 - - - - - - -
17/06:00pm 9.8 WSW 47 54 1010.0 - 1.6 - - - - - - -
17/05:49pm 9.4 WSW 50 53 1009.7 - 1.6 - - - - - - -
17/05:44pm 9.2 WSW 34 58 1010.4 - 1.6 - - - - - - -
17/05:43pm 9.3 WSW 35 58 1010.4 - 1.6 - - - - - - -
17/05:31pm 9.0 SW 50 61 1008.5 - 1.6 - - - - - - -
17/05:30pm 9.5 WSW 50 59 1009.0 - 1.6 - - - - - - -
17/05:07pm 9.6 SW 54 65 1007.9 - 1.6 - - - - - - -
17/05:04pm 9.6 SW 54 61 1008.0 - 1.6 - - - - - - -
17/05:00pm 10.4 W 37 51 1008.8 - 1.6 - - - - - - -
17/04:48pm 10.4 W 33 63 1008.9 - 1.6 - - - - - - -
17/04:47pm 10.5 W 31 63 1009.2 - 1.6 - - - - - - -
17/04:38pm 10.3 WSW 49 65 1007.5 - 1.6 - - - - - - -
17/04:35pm 10.3 WSW 60 65 1007.0 - 1.6 - - - - - - -
17/04:30pm 10.2 WSW 44 59 1008.0 - 1.6 - - - - - - -
17/04:00pm 10.5 W 38 54 1007.5 - 1.6 - - - - - - -
17/03:51pm 10.2 W 35 59 1008.2 - 1.6 - - - - - - -
17/03:31pm 10.3 WSW 51 61 1007.3 - 1.6 - - - - - - -
17/03:30pm 10.4 WSW 52 61 1007.4 - 1.6 - - - - - - -
17/03:28pm 10.3 WSW 55 61 1006.9 - 1.6 - - - - - - -
17/03:00pm 10.6 W 40 63 1007.8 - 1.6 - - - - - - -
17/02:53pm 10.4 W 37 63 1006.2 - 1.6 - - - - - - -
17/02:30pm 10.2 W 35 50 1007.4 - 1.6 - - - - - - -
17/02:27pm 10.2 W 35 50 1007.3 - 1.6 - - - - - - -
17/02:01pm 9.2 W 28 39 1008.0 - 1.6 - - - - - - -
17/02:00pm 9.0 W 29 37 1008.0 - 1.6 - - - - - - -
17/01:47pm 8.1 W 33 57 1007.6 - 1.2 - - - - - - -
17/01:45pm 8.1 W 33 57 1007.6 - 1.2 - - - - - - -
17/01:40pm 8.3 WSW 45 57 1006.5 - 0.8 - - - - - - -
17/01:39pm 8.6 WSW 48 57 1006.0 - 0.8 - - - - - - -
17/01:38pm 8.8 W 34 57 1006.7 - 0.8 - - - - - - -
17/01:35pm 10.5 W 33 44 1007.8 - 0.8 - - - - - - -
17/01:33pm 10.5 W 37 44 1007.6 - 0.8 - - - - - - -
17/01:30pm 10.5 W 27 43 1007.8 - 0.8 - - - - - - -
17/01:23pm 10.4 W 23 43 1008.0 - 0.8 - - - - - - -
17/01:21pm 10.2 W 25 44 1007.9 - 0.8 - - - - - - -
17/01:00pm 11.2 W 35 48 1007.4 - 0.8 - - - - - - -
17/12:56pm 11.2 W 38 48 1007.3 - 0.8 - - - - - - -
17/12:54pm 11.3 W 36 44 1007.3 - 0.8 - - - - - - -
17/12:50pm 11.3 W 23 40 1008.2 - 0.8 - - - - - - -
17/12:47pm 11.3 W 23 40 1008.3 - 0.8 - - - - - - -
17/12:30pm 11.4 W 34 45 1007.8 - 0.8 - - - - - - -
17/12:00pm 11.6 W 28 40 1008.0 - 0.8 - - - - - - -
17/11:30am 11.3 W 26 40 1007.9 - 0.8 - - - - - - -
17/11:00am 10.4 W 26 40 1008.1 - 0.8 - - - - - - -
17/10:42am 9.9 W 25 44 1007.9 - 0.8 - - - - - - -
17/10:36am 10.5 W 21 33 1008.4 - 0.8 - - - - - - -
17/10:30am 10.5 W 20 29 1008.5 - 0.8 - - - - - - -
17/10:01am 9.9 W 21 31 1008.8 - 0.8 - - - - - - -
17/10:00am 9.8 W 22 31 1008.7 - 0.8 - - - - - - -
17/09:30am 11.3 W 22 34 1008.7 - 0.6 - - - - - - -
17/09:00am 10.5 W 22 32 1008.8 - 8.4 - - - - - - -
17/08:31am 10.2 W 22 32 1008.7 - 8.4 - - - - - - -
17/08:30am 10.2 W 23 32 1008.7 - 8.4 - - - - - - -
17/08:01am 10.7 W 23 34 1008.4 - 6.6 - - - - - - -
17/08:00am 10.6 W 23 32 1008.6 - 6.6 - - - - - - -
17/07:30am 10.1 WNW 21 32 1008.6 - 6.6 - - - - - - -
17/07:00am 9.4 WNW 17 27 1008.9 - 6.6 - - - - - - -
17/06:30am 9.8 W 21 32 1009.0 - 6.2 - - - - - - -
17/06:00am 9.4 W 24 34 1009.1 - 5.6 - - - - - - -
17/05:30am 10.7 WNW 20 32 1008.8 - 5.2 - - - - - - -
17/05:01am 10.9 W 22 33 1008.5 - 5.2 - - - - - - -
17/05:00am 10.9 W 22 31 1008.6 - 5.2 - - - - - - -
17/04:47am 10.8 W 21 31 1008.7 - 5.2 - - - - - - -
17/04:30am 10.6 W 22 30 1008.6 - 5.2 - - - - - - -
17/04:00am 10.8 W 20 30 1008.5 - 5.2 - - - - - - -
17/03:30am 10.3 W 22 33 1008.6 - 5.2 - - - - - - -
17/03:22am 10.9 W 19 31 1008.6 - 5.0 - - - - - - -
17/03:00am 11.1 W 19 26 1009.0 - 5.0 - - - - - - -
17/02:52am 11.1 W 16 26 1009.1 - 5.0 - - - - - - -
17/02:30am 11.0 W 16 24 1009.3 - 5.0 - - - - - - -
17/02:00am 10.9 W 13 22 1009.6 - 5.0 - - - - - - -
17/01:30am 10.9 W 11 16 1010.0 - 5.0 - - - - - - -
17/01:00am 10.6 W 10 15 1010.3 - 5.0 - - - - - - -
17/12:30am 10.8 W 12 18 1010.4 - 5.0 - - - - - - -
17/12:00am 10.8 W 10 16 1010.4 - 5.0 - - - - - - -
 
Date/Time
EST
Temp

°C
Wind Pressure Rain
since 9am
mm
Weather Cloud Vis
km
Sea
Height
m
Swell
Dir
 
Speed
knots
Gust
knots
hPa Trend Height
m
Period
s
Dir
16/11:30pm 11.0 WSW 16 23 1010.5 - 5.0 - - - - - - -
16/11:00pm 11.2 WSW 21 23 1010.4 - 5.0 - - - - - - -
16/10:30pm 11.2 WSW 19 22 1010.5 - 5.0 - - - - - - -
16/10:00pm 11.1 SW 21 24 1010.5 - 5.0 - - - - - - -
16/09:30pm 10.9 SW 14 21 1010.3 - 5.0 - - - - - - -
16/09:06pm 10.9 S 8 24 1010.0 - 5.0 - - - - - - -
16/09:00pm 10.9 SW 20 26 1010.0 - 5.0 - - - - - - -
16/08:48pm 11.0 SW 15 25 1009.7 - 5.0 - - - - - - -
16/08:30pm 11.1 SW 14 21 1009.8 - 5.0 - - - - - - -
16/08:00pm 11.1 SW 9 15 1009.4 - 5.0 - - - - - - -
16/07:30pm 11.4 S 11 15 1009.1 - 5.0 - - - - - - -
16/07:00pm 11.6 SW 19 21 1008.6 - 5.0 - - - - - - -
16/06:30pm 11.7 SW 20 22 1008.2 - 5.0 - - - - - - -
16/06:00pm 12.2 SW 20 23 1008.0 - 5.0 - - - - - - -
16/05:52pm 12.2 WSW 21 23 1007.8 - 5.0 - - - - - - -
16/05:30pm 12.6 W 14 23 1008.0 - 5.0 - - - - - - -
16/05:00pm 12.7 WNW 17 23 1007.7 - 5.0 - - - - - - -
16/04:39pm 12.8 NW 16 26 1007.5 - 5.0 - - - - - - -
16/04:30pm 12.6 NW 16 21 1007.3 - 5.0 - - - - - - -
16/04:00pm 12.1 WNW 15 21 1007.4 - 4.8 - - - - - - -
16/03:30pm 11.9 W 11 17 1007.4 - 3.4 - - - - - - -
16/03:00pm 13.0 SSE 3 5 1007.3 - 1.4 - - - - - - -
16/02:30pm 13.0 S 5 6 1007.4 - 1.4 - - - - - - -
16/02:00pm 13.1 CALM 0 0 1007.5 - 1.4 - - - - - - -
16/01:30pm 13.2 NE 2 4 1007.7 - 1.4 - - - - - - -
16/01:00pm 13.3 NNE 5 6 1007.9 - 1.4 - - - - - - -
16/12:30pm 13.0 NE 10 13 1007.9 - 1.0 - - - - - - -
16/12:00pm 13.1 NNE 10 12 1008.3 - 1.0 - - - - - - -
16/11:30am 13.1 NE 12 14 1008.4 - 1.0 - - - - - - -
16/11:00am 13.3 NE 11 14 1008.8 - 1.0 - - - - - - -
16/10:30am 13.0 NNE 10 14 1009.1 - 0.8 - - - - - - -
16/10:00am 12.9 NNE 13 17 1009.1 - 0.8 - - - - - - -
16/09:30am 12.8 NNE 14 19 1008.9 - 0.6 - - - - - - -
16/09:00am 12.5 NNE 14 19 1009.0 - 3.6 - - - - - - -
16/08:30am 12.6 NE 17 20 1008.9 - 3.2 - - - - - - -
16/08:00am 12.6 NE 17 19 1008.9 - 3.0 - - - - - - -
16/07:30am 12.5 NE 16 20 1009.0 - 2.8 - - - - - - -
16/07:00am 12.3 NNE 16 21 1009.2 - 2.6 - - - - - - -
16/06:30am 12.4 NE 19 22 1008.9 - 2.2 - - - - - - -
16/06:00am 12.4 NE 18 22 1008.8 - 1.8 - - - - - - -
16/05:30am 12.4 NE 20 23 1008.7 - 1.8 - - - - - - -
16/05:00am 12.4 NE 20 24 1008.9 - 1.8 - - - - - - -
16/04:30am 12.2 NNE 20 24 1009.1 - 1.6 - - - - - - -
16/04:00am 12.3 NNE 18 22 1009.3 - 1.6 - - - - - - -
16/03:30am 12.2 NE 20 24 1008.9 - 1.4 - - - - - - -
16/03:00am 12.1 NE 20 23 1009.5 - 1.4 - - - - - - -
16/02:30am 12.2 NE 23 27 1009.3 - 1.2 - - - - - - -
16/02:00am 12.2 NE 23 29 1010.0 - 1.2 - - - - - - -
16/01:30am 12.0 NE 24 29 1010.4 - 1.2 - - - - - - -
16/01:00am 12.1 NE 23 28 1010.6 - 1.0 - - - - - - -
16/12:30am 12.0 NE 26 31 1010.8 - 1.0 - - - - - - -
16/12:00am 12.2 NE 27 32 1011.1 - 1.0 - - - - - - -
 
Date/Time
EST
Temp

°C
Wind Pressure Rain
since 9am
mm
Weather Cloud Vis
km
Sea
Height
m
Swell
Dir
 
Speed
knots
Gust
knots
hPa Trend Height
m
Period
s
Dir
15/11:30pm 12.2 NE 27 32 1011.3 - 1.0 - - - - - - -
15/11:00pm 12.2 NE 25 32 1011.6 - 1.0 - - - - - - -
15/10:30pm 12.2 NE 25 29 1012.1 - 1.0 - - - - - - -
15/10:00pm 12.1 NE 25 31 1012.4 - 1.0 - - - - - - -

Other Formats:

Comma delimited format used in spreadsheet applications
http://www.bom.gov.au/fwo/IDV60701/IDV60701.94893.axf

JavaScript Object Notation format (JSON) in row-major order
http://www.bom.gov.au/fwo/IDV60701/IDV60701.94893.json